Time;durP1;ratioP1;P1;durP2;ratioP2;P2;SDS_P1;SDS_P2;PMS_P1;PMS_P2;Temp;Humidity;BMP_temperature;BMP_pressure;BME280_temperature;BME280_humidity;BME280_pressure;Samples;Min_cycle;Max_cycle;Signal;HPM_P1;HPM_P2
2022/06/10 00:01:07;;;;;;;6.95;1.88;;;;;;;18.83;57.92;99874.66;10458312;28;20040;-70
2022/06/10 00:06:09;;;;;;;3.95;1.90;;;;;;;18.71;57.64;99863.84;10459015;28;20056;-69
2022/06/10 00:11:11;;;;;;;7.00;2.10;;;;;;;18.57;57.56;99876.69;10457922;28;20041;-70
2022/06/10 00:16:14;;;;;;;4.20;1.63;;;;;;;17.96;58.22;99838.34;10458586;28;20147;-69
2022/06/10 00:21:21;;;;;;;12.27;2.10;;;;;;;18.11;60.24;99896.25;10456808;28;20083;-69
2022/06/10 00:26:22;;;;;;;4.00;1.35;;;;;;;17.19;59.67;99762.88;10457810;28;20496;-70
2022/06/10 00:31:23;;;;;;;5.28;1.98;;;;;;;17.70;60.38;99877.09;10458126;28;20045;-70
2022/06/10 00:36:23;;;;;;;25.25;3.05;;;;;;;17.57;60.77;99888.00;10456722;28;20419;-70
2022/06/10 00:41:24;;;;;;;30.10;3.75;;;;;;;17.78;60.85;99919.00;10457716;28;20037;-69
2022/06/10 00:46:33;;;;;;;4.65;1.45;;;;;;;17.71;61.70;99915.50;10456310;28;20515;-70
2022/06/10 00:51:46;;;;;;;5.63;1.75;;;;;;;17.07;61.71;99813.00;10456737;28;20048;-70
2022/06/10 00:57:14;;;;;;;8.02;1.98;;;;;;;17.72;62.30;99933.28;10456549;28;20037;-69
2022/06/10 01:02:19;;;;;;;9.00;2.28;;;;;;;17.57;62.15;99949.78;10452689;28;20055;-69
2022/06/10 01:07:24;;;;;;;49.47;4.22;;;;;;;17.56;63.10;99959.72;10456313;28;20044;-70
2022/06/10 01:12:53;;;;;;;11.57;2.60;;;;;;;16.99;63.53;99864.25;10456107;28;20048;-69
2022/06/10 01:18:11;;;;;;;92.28;9.60;;;;;;;17.41;64.19;99953.03;10455776;28;20048;-69
2022/06/10 01:23:45;;;;;;;12.05;3.00;;;;;;;17.46;64.49;99970.13;10455596;28;20049;-69
2022/06/10 02:19:32;;;;;;;11.82;2.70;;;;;;;18.65;68.39;99983.97;10482323;28;20411;-69
2022/06/10 02:24:44;;;;;;;10.30;3.20;;;;;;;19.13;66.71;99969.59;10483192;28;20156;-70
2022/06/10 02:30:01;;;;;;;8.60;3.10;;;;;;;19.47;66.33;99985.16;10481605;28;20029;-69
2022/06/10 02:35:02;;;;;;;9.45;2.88;;;;;;;19.34;64.22;99900.03;10482833;28;20149;-69
2022/06/10 02:40:22;;;;;;;16.63;2.90;;;;;;;20.12;64.75;99984.13;10481929;28;20094;-70
2022/06/10 02:45:38;;;;;;;9.38;2.90;;;;;;;20.47;63.90;100003.69;10482208;28;20044;-70
2022/06/10 02:50:39;;;;;;;6.32;2.13;;;;;;;21.01;61.96;99994.41;10481471;28;20609;-70
2022/06/10 02:55:40;;;;;;;7.70;2.50;;;;;;;22.01;59.16;100000.72;10482023;28;20123;-70
2022/06/10 03:01:20;;;;;;;5.35;1.90;;;;;;;23.45;53.74;100001.03;10480801;28;20503;-71
2022/06/10 03:06:38;;;;;;;10.90;2.28;;;;;;;24.72;49.79;100005.41;10481617;28;20045;-71
2022/06/10 03:11:50;;;;;;;7.65;1.83;;;;;;;25.24;46.84;99901.03;10480964;28;20049;-71
2022/06/10 03:17:09;;;;;;;7.37;1.90;;;;;;;26.50;46.40;100001.47;10469322;28;20065;-72
2022/06/10 03:22:16;;;;;;;9.32;2.05;;;;;;;26.20;46.50;100007.88;10452912;28;20052;-72
2022/06/10 03:27:27;;;;;;;8.70;2.13;;;;;;;26.18;44.29;99901.19;10452744;28;20041;-72
2022/06/10 03:32:42;;;;;;;3.17;1.55;;;;;;;27.29;42.77;99993.28;10452300;28;20041;-71
2022/06/10 03:37:44;;;;;;;15.02;2.20;;;;;;;27.53;43.54;100001.47;10452348;28;20045;-72
2022/06/10 03:42:52;;;;;;;10.03;1.97;;;;;;;28.15;41.86;99933.31;10433113;28;20029;-72
2022/06/10 03:47:53;;;;;;;10.00;1.83;;;;;;;28.90;40.31;100026.22;10386061;28;20046;-72
2022/06/10 03:52:54;;;;;;;3.58;1.45;;;;;;;28.77;39.97;100023.41;10385361;28;20488;-72
2022/06/10 03:57:55;;;;;;;4.70;1.40;;;;;;;28.37;40.10;99984.63;10387270;28;20033;-71
2022/06/10 04:02:55;;;;;;;4.63;1.55;;;;;;;28.98;36.37;99985.63;10389292;28;20041;-72
2022/06/10 04:07:57;;;;;;;7.50;1.33;;;;;;;29.89;35.25;100009.72;10381244;28;20041;-73
2022/06/10 04:12:58;;;;;;;8.70;4.07;;;;;;;30.55;36.79;100041.22;10410988;28;20101;-73
2022/06/10 04:17:59;;;;;;;34.88;21.65;;;;;;;30.72;36.41;100051.50;10402325;28;20066;-72
2022/06/10 04:23:01;;;;;;;14.38;3.60;;;;;;;30.35;34.89;100009.59;10403250;28;20156;-72
2022/06/10 04:28:03;;;;;;;31.27;3.00;;;;;;;30.40;35.50;100045.09;10402503;28;20045;-72
2022/06/10 04:33:05;;;;;;;2.65;1.38;;;;;;;29.92;34.55;99966.13;10394061;28;20081;-70
2022/06/10 04:38:07;;;;;;;4.70;1.98;;;;;;;30.19;35.45;100020.03;10388944;28;20049;-70
2022/06/10 04:43:09;;;;;;;7.18;2.92;;;;;;;29.35;36.33;99910.88;10393964;28;20056;-70
2022/06/10 04:48:11;;;;;;;7.38;2.10;;;;;;;29.91;35.79;100043.88;10391787;28;20041;-71
2022/06/10 04:53:12;;;;;;;47.07;5.93;;;;;;;29.45;36.04;100039.25;10383760;28;20026;-71
2022/06/10 04:58:14;;;;;;;6.53;1.80;;;;;;;28.26;36.93;99925.78;10385384;28;20037;-71
2022/06/10 05:03:15;;;;;;;5.22;1.98;;;;;;;28.75;36.65;100042.03;10384474;28;20580;-70
2022/06/10 05:08:18;;;;;;;7.75;2.33;;;;;;;27.47;36.28;99831.59;10404847;28;20044;-70
2022/06/10 05:13:20;;;;;;;;;;;;;;;29.69;35.26;100041.06;10408537;28;20045;-70
2022/06/10 05:18:24;;;;;;;15.23;2.30;;;;;;;29.55;37.08;100019.91;10409768;28;20015;-70
2022/06/10 05:23:26;;;;;;;3.88;1.10;;;;;;;29.06;33.55;99950.22;10408394;28;20086;-70
2022/06/10 05:28:27;;;;;;;4.20;1.25;;;;;;;29.71;32.24;100023.22;10408310;28;20048;-70
2022/06/10 05:34:44;;;;;;;4.82;1.40;;;;;;;29.84;31.35;100024.31;10407456;28;20173;-70
2022/06/10 05:38:49;;;;;;;4.57;1.20;;;;;;;29.74;30.06;99997.16;10406903;28;20049;-70
2022/06/10 05:43:50;;;;;;;4.95;1.45;;;;;;;29.13;30.16;99906.06;10386937;28;20069;-70
2022/06/10 05:48:51;;;;;;;5.22;1.33;;;;;;;29.93;30.18;100024.44;10375852;28;20068;-70
2022/06/10 05:53:52;;;;;;;5.63;1.08;;;;;;;29.78;29.96;99989.94;10381580;28;20411;-70
2022/06/10 05:58:53;;;;;;;4.80;1.17;;;;;;;29.89;29.54;99972.22;10399748;28;20041;-69
2022/06/10 06:03:54;;;;;;;2.83;1.23;;;;;;;29.76;28.88;99915.53;10401397;28;20048;-70
2022/06/10 06:08:54;;;;;;;2.38;1.23;;;;;;;30.51;27.51;100020.19;10375176;28;20485;-70
2022/06/10 06:13:57;;;;;;;9.07;1.60;;;;;;;29.95;27.74;99894.31;10365464;28;20495;-69
2022/06/10 06:18:58;;;;;;;3.25;1.10;;;;;;;30.77;26.20;100023.97;10366611;28;20100;-70
2022/06/10 06:23:59;;;;;;;2.22;1.17;;;;;;;30.41;26.73;99983.69;10364719;28;20053;-69
2022/06/10 06:29:00;;;;;;;8.98;1.60;;;;;;;30.26;26.72;99882.66;10365142;28;20068;-70
2022/06/10 06:34:01;;;;;;;9.95;1.42;;;;;;;31.13;26.58;100009.41;10366411;28;20132;-70
2022/06/10 06:39:04;;;;;;;3.75;1.17;;;;;;;31.05;26.34;99997.28;10366693;28;20041;-69
2022/06/10 06:44:07;;;;;;;5.93;1.27;;;;;;;31.13;25.46;99987.44;10390433;28;20052;-70
2022/06/10 06:49:13;;;;;;;18.90;1.90;;;;;;;31.47;26.00;100003.34;10378678;28;20045;-70
2022/06/10 06:54:14;;;;;;;7.00;1.33;;;;;;;31.43;25.73;99991.34;10397636;28;20042;-78
2022/06/10 06:59:15;;;;;;;7.57;1.10;;;;;;;31.58;25.83;100010.16;10388364;28;20094;-81
2022/06/10 07:04:16;;;;;;;4.30;1.20;;;;;;;31.73;25.66;100006.16;10385481;28;20042;-82
2022/06/10 07:09:16;;;;;;;7.85;1.27;;;;;;;31.53;25.81;99951.81;10380696;28;20475;-80
2022/06/10 07:14:18;;;;;;;4.63;1.20;;;;;;;31.75;25.58;99959.97;10380354;28;20439;-81
2022/06/10 07:19:20;;;;;;;17.15;2.13;;;;;;;32.37;25.59;100013.13;10380308;28;20041;-83
2022/06/10 07:24:21;;;;;;;4.65;1.50;;;;;;;32.55;25.37;99998.31;10371425;28;20120;-81
2022/06/10 07:29:22;;;;;;;7.88;1.40;;;;;;;32.47;25.25;100007.34;10374858;28;20120;-85
2022/06/10 07:34:22;;;;;;;5.53;1.60;;;;;;;32.60;25.92;100011.06;10388174;28;20409;-80
2022/06/10 07:39:23;;;;;;;7.80;1.30;;;;;;;32.25;25.19;99975.31;10384260;28;20071;-79
2022/06/10 07:44:25;;;;;;;7.10;1.88;;;;;;;32.13;25.31;99991.59;10394694;28;20054;-83
2022/06/10 07:49:27;;;;;;;6.88;1.63;;;;;;;31.74;25.85;99968.53;10382103;28;20045;-81
2022/06/10 07:54:28;;;;;;;33.85;22.23;;;;;;;31.88;25.63;99963.72;10379466;28;20057;-79
2022/06/10 07:59:28;;;;;;;17.40;6.05;;;;;;;32.44;26.05;100000.56;10378590;28;20046;-79
2022/06/10 08:04:29;;;;;;;8.27;2.92;;;;;;;32.57;25.73;99995.22;10369637;28;20057;-79
2022/06/10 08:09:30;;;;;;;14.70;2.38;;;;;;;32.70;25.15;99999.75;10381844;28;20042;-82
2022/06/10 08:14:31;;;;;;;9.63;1.85;;;;;;;33.12;24.49;99989.84;10384967;28;20054;-79
2022/06/10 08:19:32;;;;;;;5.35;2.35;;;;;;;32.80;24.79;99957.34;10389021;28;20434;-81
2022/06/10 08:24:33;;;;;;;4.33;1.60;;;;;;;32.53;24.66;99890.56;10388720;28;20099;-85
2022/06/10 08:29:34;;;;;;;6.88;1.40;;;;;;;33.15;24.39;99969.91;10383829;28;20088;-77
2022/06/10 08:34:36;;;;;;;5.55;1.63;;;;;;;32.98;24.18;99956.19;10381106;28;20073;-83
2022/06/10 08:39:37;;;;;;;30.37;2.87;;;;;;;33.13;24.31;99930.91;10383760;28;20046;-83
2022/06/10 08:44:54;;;;;;;3.85;2.30;;;;;;;33.51;24.81;99987.16;10386917;28;20342;-84
2022/06/10 08:50:23;;;;;;;15.50;2.10;;;;;;;33.50;24.35;99986.28;10368495;28;20091;-82
2022/06/10 08:55:51;;;;;;;4.38;1.70;;;;;;;33.61;24.22;99975.75;10369052;28;20041;-81
2022/06/10 09:00:55;;;;;;;32.13;2.53;;;;;;;32.19;24.67;99861.97;10387075;28;20515;-80
2022/06/10 09:06:03;;;;;;;9.50;2.05;;;;;;;31.58;24.44;99861.09;10379520;28;20048;-82
2022/06/10 09:11:25;;;;;;;5.63;1.90;;;;;;;31.65;24.23;99844.13;10389032;28;20087;-78
2022/06/10 09:16:33;;;;;;;6.53;2.00;;;;;;;32.42;24.40;99903.00;10407486;28;20063;-82
2022/06/10 09:22:12;;;;;;;10.82;1.90;;;;;;;32.73;25.00;99960.59;10409354;28;20049;-79
2022/06/10 09:27:20;;;;;;;7.50;2.08;;;;;;;33.12;24.79;99954.06;10368953;28;20061;-81
2022/06/10 09:32:58;;;;;;;13.93;2.95;;;;;;;32.60;25.41;99956.06;10376780;28;20053;-81
2022/06/10 09:38:16;;;;;;;14.40;2.20;;;;;;;31.49;25.08;99841.03;10366494;28;20060;-83
2022/06/10 09:43:43;;;;;;;31.38;5.05;;;;;;;30.92;25.35;99845.34;10367116;28;20048;-79
2022/06/10 09:49:12;;;;;;;15.18;2.08;;;;;;;31.60;26.99;99946.69;10367888;28;20060;-82
2022/06/10 09:54:31;;;;;;;37.67;4.15;;;;;;;31.40;26.14;99937.09;10393460;28;20045;-79
2022/06/10 09:59:55;;;;;;;23.08;3.15;;;;;;;31.13;26.48;99941.63;10393317;28;20049;-79
2022/06/10 10:05:23;;;;;;;7.65;2.20;;;;;;;31.19;25.24;99941.50;10393727;28;20527;-77
2022/06/10 10:10:33;;;;;;;11.18;2.50;;;;;;;31.29;27.11;99936.53;10372131;28;20042;-79
2022/06/10 10:15:57;;;;;;;8.43;2.15;;;;;;;31.55;26.23;99924.88;10366145;28;20057;-79
2022/06/10 10:20:58;;;;;;;17.00;2.88;;;;;;;30.62;25.98;99709.06;10365647;28;20079;-77
2022/06/10 10:25:59;;;;;;;8.43;2.20;;;;;;;31.72;24.99;99823.31;10366142;28;20038;-80
2022/06/10 10:31:32;;;;;;;6.30;1.90;;;;;;;33.00;23.68;99909.09;10372194;28;20073;-81
2022/06/10 10:36:51;;;;;;;7.88;2.20;;;;;;;33.69;23.73;99908.81;10367965;28;20061;-78
2022/06/10 10:41:53;;;;;;;7.05;2.42;;;;;;;34.15;24.34;99914.50;10373534;28;20144;-81
2022/06/10 10:47:09;;;;;;;6.15;2.10;;;;;;;33.65;22.06;99816.94;10372119;28;20573;-78
2022/06/10 10:52:33;;;;;;;10.52;2.15;;;;;;;34.33;22.42;99904.13;10371923;28;20042;-77
2022/06/10 10:57:37;;;;;;;5.88;2.38;;;;;;;33.47;22.16;99901.59;10368500;28;20050;-79
2022/06/10 11:02:54;;;;;;;35.83;4.50;;;;;;;32.99;22.77;99902.78;10373429;28;20030;-76
2022/06/10 11:08:19;;;;;;;15.90;3.03;;;;;;;32.69;23.31;99899.91;10411223;28;20046;-76
2022/06/10 11:13:32;;;;;;;6.90;1.88;;;;;;;31.48;24.18;99795.53;10413178;28;20037;-77
2022/06/10 11:18:37;;;;;;;46.80;3.80;;;;;;;30.94;24.90;99787.47;10393472;28;20057;-78
2022/06/10 11:23:49;;;;;;;7.07;1.85;;;;;;;31.35;25.26;99885.06;10386317;28;20097;-75
2022/06/10 11:28:59;;;;;;;5.70;2.28;;;;;;;31.16;24.87;99890.78;10391014;28;20052;-75
2022/06/10 11:34:01;;;;;;;4.38;1.98;;;;;;;31.07;24.46;99885.28;10396020;28;20060;-76
2022/06/10 11:39:25;;;;;;;12.07;2.45;;;;;;;31.10;25.51;99878.34;10390403;28;20136;-76
2022/06/10 11:44:29;;;;;;;15.63;3.38;;;;;;;30.81;25.63;99827.59;10411706;28;20154;-77
2022/06/10 11:49:58;;;;;;;12.70;3.05;;;;;;;31.49;25.86;99857.50;10404090;28;20136;-75
2022/06/10 11:55:15;;;;;;;19.63;2.50;;;;;;;31.83;25.57;99896.03;10399358;28;20060;-77
2022/06/10 12:00:33;;;;;;;5.03;2.03;;;;;;;32.20;23.96;99893.00;10395445;28;20066;-77
2022/06/10 12:05:45;;;;;;;5.63;2.22;;;;;;;32.65;23.22;99876.16;10395966;28;20044;-75
2022/06/10 12:10:53;;;;;;;7.25;2.00;;;;;;;33.28;23.26;99870.94;10410270;28;20033;-76
2022/06/10 12:15:56;;;;;;;7.68;2.20;;;;;;;33.24;23.20;99867.25;10410610;28;20054;-77
2022/06/10 12:21:02;;;;;;;74.63;7.03;;;;;;;32.79;23.61;99873.19;10409894;28;20132;-77
2022/06/10 12:26:28;;;;;;;18.33;3.42;;;;;;;32.25;23.10;99866.16;10410866;28;20557;-78
2022/06/10 12:31:45;;;;;;;11.80;1.90;;;;;;;32.40;25.03;99869.53;10410208;28;20079;-77
2022/06/10 12:36:57;;;;;;;16.48;2.65;;;;;;;32.02;23.91;99865.53;10409947;28;20098;-77
2022/06/10 12:42:11;;;;;;;6.15;2.40;;;;;;;31.58;24.03;99872.88;10409839;28;20034;-76
2022/06/10 12:47:15;;;;;;;11.40;2.47;;;;;;;31.05;24.33;99834.59;10384133;28;20046;-77
2022/06/10 12:52:39;;;;;;;4.07;1.77;;;;;;;31.06;24.66;99839.78;10407487;28;20088;-77
2022/06/10 12:57:43;;;;;;;12.52;2.40;;;;;;;30.63;25.18;99749.06;10403728;28;20046;-76
2022/06/10 13:02:55;;;;;;;12.43;2.95;;;;;;;32.08;23.82;99873.63;10384979;28;20128;-76
2022/06/10 13:07:56;;;;;;;11.95;2.60;;;;;;;32.28;23.62;99861.97;10395395;28;20045;-76
2022/06/10 13:13:10;;;;;;;6.38;2.15;;;;;;;32.57;23.60;99874.22;10391325;28;20049;-77
2022/06/10 13:18:17;;;;;;;21.25;3.97;;;;;;;32.82;24.00;99859.63;10402164;28;20544;-76
2022/06/10 13:23:26;;;;;;;17.40;2.30;;;;;;;32.88;23.20;99843.75;10405244;28;20060;-75
2022/06/10 13:28:28;;;;;;;23.10;2.53;;;;;;;32.41;22.97;99810.69;10403381;28;20045;-77
2022/06/10 13:33:30;;;;;;;3.83;1.70;;;;;;;32.70;22.66;99852.03;10395699;28;20054;-77
2022/06/10 13:38:35;;;;;;;7.88;2.00;;;;;;;32.20;21.92;99783.09;10407723;28;20052;-74
2022/06/10 13:43:36;;;;;;;4.75;1.70;;;;;;;32.74;22.59;99841.19;10406092;28;20033;-76
2022/06/10 13:48:37;;;;;;;3.60;2.00;;;;;;;32.91;22.69;99846.63;10379911;28;20046;-77
2022/06/10 13:53:53;;;;;;;25.60;2.85;;;;;;;32.74;23.03;99847.50;10405809;28;20033;-77
2022/06/10 13:58:56;;;;;;;6.88;2.20;;;;;;;32.64;23.05;99858.84;10396883;28;20492;-77
2022/06/10 14:04:09;;;;;;;17.15;2.40;;;;;;;32.15;22.16;99767.56;10379584;28;20073;-75
2022/06/10 14:09:28;;;;;;;2.40;1.35;;;;;;;32.68;21.57;99842.50;10384461;28;20080;-76
2022/06/10 14:14:31;;;;;;;5.60;1.85;;;;;;;31.99;22.39;99739.00;10406298;28;20157;-76
2022/06/10 14:19:39;;;;;;;5.18;1.73;;;;;;;32.00;22.53;99754.34;10406382;28;20492;-76
2022/06/10 14:24:40;;;;;;;4.18;1.83;;;;;;;32.63;22.54;99848.97;10407035;28;20053;-77
2022/06/10 14:29:58;;;;;;;8.98;2.65;;;;;;;32.40;22.45;99834.63;10406861;28;20128;-76
2022/06/10 14:35:03;;;;;;;11.80;2.22;;;;;;;31.63;22.88;99742.88;10406943;28;20496;-77
2022/06/10 14:40:13;;;;;;;14.05;3.10;;;;;;;31.99;23.02;99804.94;10406285;28;20497;-77
2022/06/10 14:45:38;;;;;;;7.25;2.30;;;;;;;32.26;23.60;99858.72;10406182;28;20033;-78
2022/06/10 14:50:59;;;;;;;33.47;3.42;;;;;;;31.93;23.52;99880.41;10405448;28;20076;-77
2022/06/10 14:56:03;;;;;;;33.88;3.50;;;;;;;31.56;23.72;99872.41;10406324;28;20044;-78
2022/06/10 15:01:04;;;;;;;15.35;2.40;;;;;;;30.57;23.47;99750.31;10405351;28;20046;-79
2022/06/10 15:06:25;;;;;;;32.42;3.28;;;;;;;30.67;23.47;99780.22;10377186;28;20042;-78
2022/06/10 15:11:28;;;;;;;21.52;2.90;;;;;;;30.63;24.19;99785.53;10368642;28;20050;-77
2022/06/10 15:16:29;;;;;;;7.22;1.80;;;;;;;30.59;23.98;99768.09;10372131;28;20087;-77
2022/06/10 15:21:35;;;;;;;26.80;3.50;;;;;;;31.37;24.69;99902.03;10372254;28;20582;-75
2022/06/10 15:26:44;;;;;;;11.05;1.92;;;;;;;31.22;24.06;99905.19;10371331;28;20406;-79
2022/06/10 15:31:45;;;;;;;17.38;2.10;;;;;;;29.93;24.35;99756.06;10370793;28;20042;-79
2022/06/10 15:42:07;;;;;;;20.48;2.50;;;;;;;30.28;25.32;99923.47;10371418;28;20049;-79
2022/06/10 15:47:11;;;;;;;17.13;2.15;;;;;;;30.08;25.52;99930.19;10370913;28;20045;-80
2022/06/10 15:52:25;;;;;;;6.40;2.10;;;;;;;29.88;26.35;99942.38;10370721;28;20042;-79
2022/06/10 15:57:30;;;;;;;6.80;1.92;;;;;;;28.63;26.47;99761.00;10368793;28;20069;-79
2022/06/10 16:02:31;;;;;;;8.90;2.03;;;;;;;28.78;26.81;99818.13;10370132;28;20045;-79
2022/06/10 16:07:32;;;;;;;12.15;2.28;;;;;;;29.34;27.32;99939.31;10369608;28;20077;-78
2022/06/10 16:17:56;;;;;;;18.08;2.30;;;;;;;28.64;29.34;99904.75;10382783;28;20515;-67
2022/06/10 16:22:58;;;;;;;15.60;2.70;;;;;;;28.59;29.50;99940.34;10399760;28;20124;-68
2022/06/10 16:28:02;;;;;;;24.88;2.80;;;;;;;28.19;30.26;99916.06;10409870;28;20048;-67
2022/06/10 16:33:04;;;;;;;16.02;3.30;;;;;;;28.18;30.83;99946.38;10408649;28;20120;-67
2022/06/10 16:38:15;;;;;;;37.78;5.68;;;;;;;26.55;32.89;99733.69;10381423;28;20065;-68
2022/06/10 16:43:19;;;;;;;1028.32;95.07;;;;;;;27.60;33.60;99949.28;10383783;28;20050;-67
2022/06/10 16:48:26;;;;;;;175.80;15.38;;;;;;;27.39;33.25;99946.78;10368919;28;20046;-68
2022/06/10 16:53:27;;;;;;;36.78;4.72;;;;;;;26.54;32.35;99833.69;10375780;28;20052;-68
2022/06/10 16:58:34;;;;;;;143.65;12.27;;;;;;;27.23;34.03;99959.78;10377115;28;20141;-67
2022/06/10 17:03:35;;;;;;;39.10;4.80;;;;;;;27.12;33.92;99957.41;10369963;28;20133;-70
2022/06/10 17:08:35;;;;;;;25.33;4.07;;;;;;;26.12;33.90;99831.56;10404297;28;20124;-68
2022/06/10 17:13:37;;;;;;;34.40;5.22;;;;;;;25.91;35.06;99826.25;10407303;28;20045;-68
2022/06/10 17:18:38;;;;;;;26.13;6.00;;;;;;;26.17;34.88;99905.84;10407301;28;20091;-67
2022/06/10 17:23:39;;;;;;;17.77;4.53;;;;;;;26.27;35.11;99964.03;10407864;28;20049;-68
2022/06/10 17:28:42;;;;;;;17.92;5.00;;;;;;;25.58;36.86;99927.59;10407995;28;20048;-68
2022/06/10 17:33:46;;;;;;;25.23;5.68;;;;;;;25.82;37.38;100004.00;10408148;28;20133;-68
2022/06/10 17:38:51;;;;;;;18.83;5.15;;;;;;;24.29;38.35;99804.69;10403521;28;20041;-70
2022/06/10 17:43:52;;;;;;;12.38;4.72;;;;;;;25.44;37.76;100004.31;10395754;28;20048;-67
2022/06/10 17:48:54;;;;;;;17.88;6.35;;;;;;;24.73;38.82;99934.50;10407794;28;20084;-68
2022/06/10 17:53:54;;;;;;;20.33;6.13;;;;;;;24.91;39.90;100011.91;10408010;28;20037;-67
2022/06/10 17:58:55;;;;;;;13.48;5.70;;;;;;;24.77;40.42;100005.41;10398152;28;20045;-68
2022/06/10 18:03:57;;;;;;;13.75;5.10;;;;;;;24.68;40.31;100010.56;10394228;28;20137;-68
2022/06/10 18:08:58;;;;;;;24.48;4.43;;;;;;;23.66;41.07;99860.97;10406684;28;20080;-69
2022/06/10 18:19:28;;;;;;;12.98;4.07;;;;;;;24.25;42.86;100018.00;10407219;28;20432;-68
2022/06/10 18:24:32;;;;;;;13.95;4.30;;;;;;;24.28;41.44;100016.66;10406434;28;20077;-68
2022/06/10 18:29:43;;;;;;;12.32;3.22;;;;;;;24.30;41.49;100028.06;10404908;28;20086;-68
2022/06/10 18:34:47;;;;;;;13.45;2.70;;;;;;;24.13;40.94;100010.09;10407057;28;20480;-68
2022/06/10 18:39:48;;;;;;;;;;;;;;;24.42;39.82;100017.00;10406566;28;20041;-68
2022/06/10 18:44:50;;;;;;;6.60;2.20;;;;;;;24.10;40.59;100002.47;10405909;28;19917;-68
2022/06/10 18:49:51;;;;;;;8.60;2.33;;;;;;;23.81;40.59;99957.88;10411589;28;20453;-68
2022/06/10 18:54:54;;;;;;;11.98;3.03;;;;;;;22.69;41.13;99798.16;10579673;28;20130;-68
2022/06/10 18:59:55;;;;;;;15.70;3.05;;;;;;;22.09;41.00;99706.25;10586074;28;20084;-67
2022/06/10 19:04:56;;;;;;;7.03;3.28;;;;;;;23.76;40.50;99976.84;10586093;28;20070;-69
2022/06/10 19:09:58;;;;;;;10.02;2.10;;;;;;;23.92;40.25;100001.06;10585856;28;20604;-67
2022/06/10 19:14:58;;;;;;;9.10;2.60;;;;;;;24.10;39.70;100015.25;10585151;28;20071;-68
2022/06/10 19:20:09;;;;;;;7.22;1.90;;;;;;;23.66;39.29;99962.13;10583245;28;20042;-70
2022/06/10 19:25:21;;;;;;;10.15;2.60;;;;;;;24.08;39.17;100007.38;10584814;28;20039;-68
2022/06/10 19:30:25;;;;;;;10.82;4.13;;;;;;;23.97;38.49;99991.31;10583130;28;20440;-66
2022/06/10 19:35:32;;;;;;;7.72;2.20;;;;;;;23.39;38.34;99894.50;10565187;28;20073;-67
2022/06/10 19:40:37;;;;;;;6.50;2.05;;;;;;;23.94;38.20;99983.72;10554314;28;20410;-68
2022/06/10 19:45:37;;;;;;;5.30;2.00;;;;;;;24.14;38.07;100011.75;10543056;28;20039;-67
2022/06/10 19:50:44;;;;;;;8.70;2.47;;;;;;;24.12;37.69;100004.94;10543153;28;20048;-67
2022/06/10 19:55:49;;;;;;;16.85;2.53;;;;;;;23.42;37.79;99902.09;10542463;28;20040;-67
2022/06/10 20:00:52;;;;;;;7.50;1.70;;;;;;;23.29;37.66;99883.59;10546112;28;20071;-68
2022/06/10 20:05:54;;;;;;;5.70;1.73;;;;;;;23.95;37.61;100013.28;10563627;28;20039;-68
2022/06/10 20:10:55;;;;;;;4.35;1.77;;;;;;;23.84;38.00;99987.19;10581002;27;20134;-68
2022/06/10 20:16:01;;;;;;;8.13;1.95;;;;;;;23.79;37.83;99990.69;10553404;28;20511;-67
2022/06/10 20:21:05;;;;;;;3.20;1.40;;;;;;;23.91;37.49;100009.47;10540865;28;20036;-67
2022/06/10 20:26:06;;;;;;;;;;;;;;;24.07;37.19;100004.91;10540564;28;20036;-67
2022/06/10 20:31:24;;;;;;;4.47;1.58;;;;;;;23.95;37.28;100007.84;10554561;28;19965;-67
2022/06/10 20:36:31;;;;;;;4.18;1.80;;;;;;;23.20;37.00;99894.09;10572401;28;20517;-67
2022/06/10 20:41:32;;;;;;;4.40;1.50;;;;;;;23.95;37.17;100010.56;10540144;28;20051;-67
2022/06/10 20:46:43;;;;;;;4.18;1.58;;;;;;;23.92;37.26;100008.38;10541036;28;20047;-67
2022/06/10 20:51:44;;;;;;;4.43;1.50;;;;;;;23.79;37.72;99998.03;10540916;28;20040;-67
2022/06/10 20:56:45;;;;;;;3.03;1.50;;;;;;;23.75;37.50;99996.91;10540167;28;20123;-67
2022/06/10 21:01:53;;;;;;;6.63;1.75;;;;;;;23.78;37.79;99999.94;10539798;28;20139;-67
2022/06/10 21:12:14;;;;;;;3.65;1.50;;;;;;;23.53;38.57;100008.69;10538754;28;20039;-67
2022/06/10 21:17:28;;;;;;;7.35;2.20;;;;;;;23.29;39.88;99985.75;10539608;28;20578;-68
2022/06/10 21:22:28;;;;;;;;;;;;;;;23.55;38.98;100013.88;10540544;28;20097;-67
2022/06/10 21:27:29;;;;;;;6.50;1.60;;;;;;;23.26;39.52;100014.19;10538318;28;19916;-68
2022/06/10 21:32:30;;;;;;;3.20;1.70;;;;;;;23.21;40.28;100015.00;10538803;28;20118;-67
2022/06/10 21:37:31;;;;;;;6.75;2.10;;;;;;;23.14;40.86;100014.38;10538491;28;20040;-67
2022/06/10 21:47:53;;;;;;;6.00;2.33;;;;;;;22.47;41.49;99949.88;10538722;28;20062;-67
2022/06/10 21:52:55;;;;;;;7.88;2.00;;;;;;;22.87;42.10;100029.84;10536832;28;20040;-67
2022/06/10 21:57:57;;;;;;;5.50;2.55;;;;;;;21.98;42.97;99912.78;10537398;28;20522;-67
2022/06/10 22:02:59;;;;;;;4.53;2.15;;;;;;;22.56;43.65;100037.66;10537264;28;20047;-67
2022/06/10 22:08:00;;;;;;;6.18;2.00;;;;;;;22.23;44.12;100008.88;10537652;28;20090;-67
2022/06/10 22:13:01;;;;;;;6.38;2.40;;;;;;;22.24;44.92;100040.25;10537408;28;20032;-68
2022/06/10 22:18:11;;;;;;;7.72;2.70;;;;;;;21.98;46.47;100028.28;10537896;28;20052;-67
2022/06/10 22:23:24;;;;;;;6.30;2.45;;;;;;;21.91;47.58;100030.34;10540868;28;20061;-67
2022/06/10 22:28:26;;;;;;;10.85;2.70;;;;;;;21.32;47.04;99974.09;10545438;28;20098;-67
2022/06/10 22:33:35;;;;;;;4.15;2.30;;;;;;;21.58;47.67;100040.16;10545338;28;20406;-67
2022/06/10 22:38:43;;;;;;;8.45;2.33;;;;;;;21.36;48.28;100024.72;10544386;28;20545;-67
2022/06/10 22:43:44;;;;;;;5.45;2.47;;;;;;;21.47;47.99;100050.00;10544977;28;20071;-67
2022/06/10 22:48:45;;;;;;;4.32;2.35;;;;;;;21.32;48.50;100055.94;10546037;28;20458;-67
2022/06/10 22:53:46;;;;;;;9.73;2.75;;;;;;;20.97;48.94;100019.22;10544493;28;20491;-67
2022/06/10 22:58:47;;;;;;;13.18;2.50;;;;;;;21.04;49.59;100043.34;10543554;28;20402;-67
2022/06/10 23:03:52;;;;;;;9.48;2.80;;;;;;;20.75;51.06;100039.84;10544082;28;20472;-67
2022/06/10 23:14:19;;;;;;;4.95;2.30;;;;;;;20.39;52.71;100036.47;10543529;28;20064;-67
2022/06/10 23:19:33;;;;;;;4.40;2.25;;;;;;;19.63;53.50;99916.28;10559483;28;20067;-70
2022/06/10 23:24:35;;;;;;;9.70;2.70;;;;;;;20.18;52.61;100026.31;10544908;28;20047;-67
2022/06/10 23:29:36;;;;;;;6.63;2.55;;;;;;;20.25;53.25;100051.28;10543139;28;20028;-67
2022/06/10 23:34:38;;;;;;;7.07;2.90;;;;;;;20.10;53.95;100059.06;10543116;28;20142;-67
2022/06/10 23:39:39;;;;;;;6.60;2.50;;;;;;;20.00;53.82;100041.59;10541981;28;20113;-68
2022/06/10 23:44:41;;;;;;;10.40;2.70;;;;;;;19.91;54.83;100037.63;10542270;28;20139;-67
